Time;durP1;ratioP1;P1;durP2;ratioP2;P2;SDS_P1;SDS_P2;PMS_P1;PMS_P2;Temp;Humidity;BMP_temperature;BMP_pressure;BME280_temperature;BME280_humidity;BME280_pressure;Samples;Min_cycle;Max_cycle;Signal;HPM_P1;HPM_P2
2021/11/01 00:01:11;;;;;;;0.30;0.30;;;;;;;;;;5077142;28;20679;-73
2021/11/01 00:03:38;;;;;;;0.70;0.10;;;;;;;;;;5071766;28;20658;-73
2021/11/01 00:06:07;;;;;;;0.73;0.37;;;;;;;;;;5071969;28;20205;-73
2021/11/01 00:08:37;;;;;;;0.33;0.33;;;;;;;;;;5074322;28;20283;-73
2021/11/01 00:11:04;;;;;;;0.20;0.10;;;;;;;;;;5078383;28;20209;-74
2021/11/01 00:13:33;;;;;;;0.00;0.00;;;;;;;;;;5074711;28;20198;-73
2021/11/01 00:16:00;;;;;;;1.03;0.67;;;;;;;;;;5077143;28;20198;-73
2021/11/01 00:18:28;;;;;;;0.87;0.77;;;;;;;;;;5073982;28;20903;-73
2021/11/01 00:20:55;;;;;;;0.47;0.40;;;;;;;;;;5074843;28;20555;-73
2021/11/01 00:23:23;;;;;;;0.47;0.37;;;;;;;;;;5075696;28;20198;-74
2021/11/01 00:25:51;;;;;;;0.00;0.00;;;;;;;;;;5075690;28;20312;-73
2021/11/01 00:28:19;;;;;;;1.67;0.27;;;;;;;;;;5074608;28;20328;-73
2021/11/01 00:30:48;;;;;;;0.00;0.00;;;;;;;;;;5074058;28;20207;-74
2021/11/01 00:33:16;;;;;;;0.10;0.10;;;;;;;;;;5074463;28;20214;-73
2021/11/01 00:35:43;;;;;;;0.10;0.10;;;;;;;;;;5075195;28;20203;-73
2021/11/01 00:38:11;;;;;;;0.00;0.00;;;;;;;;;;5073744;28;20248;-73
2021/11/01 00:40:39;;;;;;;0.10;0.10;;;;;;;;;;5075170;28;20207;-73
2021/11/01 00:43:06;;;;;;;1.03;0.53;;;;;;;;;;5072119;28;20705;-73
2021/11/01 00:45:34;;;;;;;0.10;0.10;;;;;;;;;;5074827;28;20549;-73
2021/11/01 00:48:03;;;;;;;1.17;0.67;;;;;;;;;;5076406;28;20715;-73
2021/11/01 00:50:32;;;;;;;0.20;0.20;;;;;;;;;;5073832;28;20667;-74
2021/11/01 00:52:59;;;;;;;0.37;0.37;;;;;;;;;;5072786;28;20572;-74
2021/11/01 00:55:34;;;;;;;0.50;0.23;;;;;;;;;;5072183;28;20198;-74
2021/11/01 00:58:02;;;;;;;2.27;0.57;;;;;;;;;;5076956;28;20585;-74
2021/11/01 01:00:30;;;;;;;0.07;0.07;;;;;;;;;;5074236;28;20218;-74
2021/11/01 01:02:58;;;;;;;0.00;0.00;;;;;;;;;;5072428;28;20248;-73
2021/11/01 01:05:27;;;;;;;0.00;0.00;;;;;;;;;;5090322;28;20194;-74
2021/11/01 01:07:55;;;;;;;1.00;0.37;;;;;;;;;;5089511;28;20210;-74
2021/11/01 01:10:22;;;;;;;0.00;0.00;;;;;;;;;;5083610;28;20621;-74
2021/11/01 01:12:50;;;;;;;0.77;0.20;;;;;;;;;;5072863;28;20214;-74
2021/11/01 01:15:21;;;;;;;0.00;0.00;;;;;;;;;;5077894;28;20218;-74
2021/11/01 01:17:50;;;;;;;4.93;0.43;;;;;;;;;;5087334;28;20210;-74
2021/11/01 01:20:19;;;;;;;0.53;0.53;;;;;;;;;;5099724;28;20275;-74
2021/11/01 01:22:48;;;;;;;0.57;0.57;;;;;;;;;;5082833;28;20195;-74
2021/11/01 01:25:28;;;;;;;0.30;0.30;;;;;;;;;;5088945;28;20217;-73
2021/11/01 01:27:56;;;;;;;0.27;0.27;;;;;;;;;;5083285;28;20209;-74
2021/11/01 01:30:25;;;;;;;3.63;0.10;;;;;;;;;;5096346;28;20673;-73
2021/11/01 01:32:53;;;;;;;0.93;0.30;;;;;;;;;;5078891;28;20249;-74
2021/11/01 01:35:20;;;;;;;2.53;1.53;;;;;;;;;;5075374;28;20210;-74
2021/11/01 01:37:52;;;;;;;0.23;0.23;;;;;;;;;;5070942;28;20206;-72
2021/11/01 01:40:20;;;;;;;0.00;0.00;;;;;;;;;;5074552;28;20226;-76
2021/11/01 01:42:48;;;;;;;0.00;0.00;;;;;;;;;;5071219;28;20294;-74
2021/11/01 01:45:16;;;;;;;0.00;0.00;;;;;;;;;;5073296;28;20214;-73
2021/11/01 01:47:44;;;;;;;0.20;0.20;;;;;;;;;;5077405;28;20230;-74
2021/11/01 01:50:12;;;;;;;0.20;0.20;;;;;;;;;;5083574;28;20229;-75
2021/11/01 01:52:41;;;;;;;0.17;0.17;;;;;;;;;;5085324;28;20297;-75
2021/11/01 01:55:12;;;;;;;6.10;1.07;;;;;;;;;;5090939;28;20277;-75
2021/11/01 01:57:40;;;;;;;0.00;0.00;;;;;;;;;;5086976;28;20259;-75
2021/11/01 02:00:16;;;;;;;0.00;0.00;;;;;;;;;;5085397;28;20203;-74
2021/11/01 02:02:44;;;;;;;0.00;0.00;;;;;;;;;;5090778;28;20211;-75
2021/11/01 02:05:12;;;;;;;4.57;1.50;;;;;;;;;;5090499;28;20669;-74
2021/11/01 02:07:40;;;;;;;0.10;0.10;;;;;;;;;;5088495;28;20201;-74
2021/11/01 02:10:10;;;;;;;0.70;0.70;;;;;;;;;;5075547;28;20344;-75
2021/11/01 02:12:43;;;;;;;1.23;0.53;;;;;;;;;;5072453;28;20209;-74
2021/11/01 02:15:13;;;;;;;0.20;0.10;;;;;;;;;;5072363;28;20305;-73
2021/11/01 02:17:41;;;;;;;0.10;0.10;;;;;;;;;;5071038;28;20214;-74
2021/11/01 02:20:09;;;;;;;1.00;0.67;;;;;;;;;;5071694;28;20191;-75
2021/11/01 02:22:42;;;;;;;2.23;0.30;;;;;;;;;;5072029;28;20203;-74
2021/11/01 02:25:11;;;;;;;0.20;0.20;;;;;;;;;;5078571;28;20201;-75
2021/11/01 02:27:43;;;;;;;0.93;0.20;;;;;;;;;;5074268;28;20264;-72
2021/11/01 02:30:12;;;;;;;0.10;0.10;;;;;;;;;;5090339;28;20233;-75
2021/11/01 02:32:42;;;;;;;0.77;0.60;;;;;;;;;;5090088;28;20194;-76
2021/11/01 02:35:10;;;;;;;0.00;0.00;;;;;;;;;;5086855;28;20199;-76
2021/11/01 02:37:38;;;;;;;0.00;0.00;;;;;;;;;;5082382;28;20198;-75
2021/11/01 02:40:07;;;;;;;0.77;0.50;;;;;;;;;;5100426;28;20285;-75
2021/11/01 02:42:35;;;;;;;1.23;0.93;;;;;;;;;;5090704;28;20556;-76
2021/11/01 02:45:04;;;;;;;0.40;0.33;;;;;;;;;;5080502;28;20206;-74
2021/11/01 02:47:32;;;;;;;0.00;0.00;;;;;;;;;;5090670;28;20331;-75
2021/11/01 02:50:00;;;;;;;0.83;0.57;;;;;;;;;;5087396;28;20234;-73
2021/11/01 02:52:29;;;;;;;0.00;0.00;;;;;;;;;;5069053;28;20207;-75
2021/11/01 02:54:57;;;;;;;8.00;0.47;;;;;;;;;;5072163;28;20206;-76
2021/11/01 02:57:24;;;;;;;1.07;0.03;;;;;;;;;;5072354;28;20205;-75
2021/11/01 02:59:52;;;;;;;0.93;0.30;;;;;;;;;;5075374;28;20221;-74
2021/11/01 03:02:22;;;;;;;0.00;0.00;;;;;;;;;;5073361;28;20206;-76
2021/11/01 03:04:50;;;;;;;0.00;0.00;;;;;;;;;;5067936;28;20208;-75
2021/11/01 03:07:18;;;;;;;0.10;0.10;;;;;;;;;;5073123;28;20214;-74
2021/11/01 03:09:48;;;;;;;0.00;0.00;;;;;;;;;;5088296;28;20245;-76
2021/11/01 03:12:17;;;;;;;0.23;0.00;;;;;;;;;;5089204;28;20231;-76
2021/11/01 03:14:49;;;;;;;0.00;0.00;;;;;;;;;;5090445;28;20204;-76
2021/11/01 03:17:19;;;;;;;0.57;0.30;;;;;;;;;;5090472;28;20205;-76
2021/11/01 03:19:50;;;;;;;0.00;0.00;;;;;;;;;;5093286;28;20220;-77
2021/11/01 03:22:19;;;;;;;0.00;0.00;;;;;;;;;;5089849;28;20242;-76
2021/11/01 03:24:50;;;;;;;0.00;0.00;;;;;;;;;;5100876;28;20262;-76
2021/11/01 03:27:18;;;;;;;0.60;0.60;;;;;;;;;;5090162;28;20202;-76
2021/11/01 03:29:47;;;;;;;0.47;0.47;;;;;;;;;;5088581;28;20312;-76
2021/11/01 03:32:15;;;;;;;3.93;0.10;;;;;;;;;;5107875;28;20203;-76
2021/11/01 03:34:43;;;;;;;1.63;0.77;;;;;;;;;;5095388;28;20296;-76
2021/11/01 03:37:15;;;;;;;1.30;0.10;;;;;;;;;;5091763;28;20293;-76
2021/11/01 03:39:44;;;;;;;0.00;0.00;;;;;;;;;;5087820;28;20198;-76
2021/11/01 03:42:11;;;;;;;0.80;0.40;;;;;;;;;;5093850;28;20710;-76
2021/11/01 03:44:45;;;;;;;0.00;0.00;;;;;;;;;;5092968;28;20296;-76
2021/11/01 03:47:14;;;;;;;0.70;0.40;;;;;;;;;;5093541;28;20226;-75
2021/11/01 03:49:49;;;;;;;0.10;0.10;;;;;;;;;;5095435;28;20303;-76
2021/11/01 03:52:22;;;;;;;0.27;0.20;;;;;;;;;;5092327;28;20247;-77
2021/11/01 03:54:51;;;;;;;0.00;0.00;;;;;;;;;;5105008;28;20199;-78
2021/11/01 03:57:19;;;;;;;0.00;0.00;;;;;;;;;;5089945;28;20211;-77
2021/11/01 03:59:46;;;;;;;0.23;0.20;;;;;;;;;;5101673;28;20229;-75
2021/11/01 04:02:14;;;;;;;0.37;0.20;;;;;;;;;;5093548;28;20218;-77
2021/11/01 04:04:44;;;;;;;0.00;0.00;;;;;;;;;;5091903;28;20734;-77
2021/11/01 04:07:11;;;;;;;0.00;0.00;;;;;;;;;;5083859;28;20210;-77
2021/11/01 04:09:40;;;;;;;0.00;0.00;;;;;;;;;;5091941;28;20317;-75
2021/11/01 04:12:09;;;;;;;0.00;0.00;;;;;;;;;;5074502;28;20199;-77
2021/11/01 04:14:40;;;;;;;0.10;0.10;;;;;;;;;;5092636;28;20225;-75
2021/11/01 04:17:12;;;;;;;0.30;0.30;;;;;;;;;;5092367;28;20207;-75
2021/11/01 04:19:54;;;;;;;0.10;0.10;;;;;;;;;;5087495;28;20209;-75
2021/11/01 04:22:21;;;;;;;0.10;0.10;;;;;;;;;;5095257;28;20206;-76
2021/11/01 04:24:50;;;;;;;1.57;0.23;;;;;;;;;;5093216;28;20199;-75
2021/11/01 04:27:19;;;;;;;0.00;0.00;;;;;;;;;;5090976;28;20256;-75
2021/11/01 04:29:47;;;;;;;0.37;0.23;;;;;;;;;;5081757;28;20272;-74
2021/11/01 04:32:26;;;;;;;0.00;0.00;;;;;;;;;;5089365;28;20195;-75
2021/11/01 04:34:59;;;;;;;0.00;0.00;;;;;;;;;;5092647;28;20623;-76
2021/11/01 04:37:28;;;;;;;3.70;0.10;;;;;;;;;;5086211;28;20206;-75
2021/11/01 04:53:52;;;;;;;0.00;0.00;;;;;;;;;;5119929;28;20282;-76
2021/11/01 04:56:22;;;;;;;0.20;0.20;;;;;;;;;;5110371;27;20254;-76
2021/11/01 04:58:49;;;;;;;1.60;0.10;;;;;;;;;;5108704;27;20201;-76
2021/11/01 05:01:22;;;;;;;0.10;0.10;;;;;;;;;;5106791;27;20296;-76
2021/11/01 05:03:53;;;;;;;0.27;0.07;;;;;;;;;;5109298;28;20213;-76
2021/11/01 05:06:23;;;;;;;7.20;0.87;;;;;;;;;;5111541;28;20570;-76
2021/11/01 05:08:56;;;;;;;0.00;0.00;;;;;;;;;;5109515;27;20289;-76
2021/11/01 05:11:31;;;;;;;0.40;0.33;;;;;;;;;;5109094;27;20305;-76
2021/11/01 05:14:00;;;;;;;0.00;0.00;;;;;;;;;;5109813;27;20231;-76
2021/11/01 05:19:24;;;;;;;0.00;0.00;;;;;;;;;;5101835;27;20198;-76
2021/11/01 05:22:02;;;;;;;0.00;0.00;;;;;;;;;;5109735;27;20613;-76
2021/11/01 05:24:35;;;;;;;7.63;0.10;;;;;;;;;;5108556;28;20575;-77
2021/11/01 05:29:47;;;;;;;0.00;0.00;;;;;;;;;;5109433;28;20201;-77
2021/11/01 05:32:19;;;;;;;0.60;0.20;;;;;;;;;;5110339;27;20253;-76
2021/11/01 05:34:46;;;;;;;1.03;0.63;;;;;;;;;;5108909;27;20221;-77
2021/11/01 05:37:14;;;;;;;0.00;0.00;;;;;;;;;;5108587;28;20575;-76
2021/11/01 05:39:41;;;;;;;0.00;0.00;;;;;;;;;;5109692;28;20206;-75
2021/11/01 05:42:10;;;;;;;0.10;0.10;;;;;;;;;;5108645;28;20220;-76
2021/11/01 05:44:37;;;;;;;0.00;0.00;;;;;;;;;;5106817;28;20230;-74
2021/11/01 05:47:06;;;;;;;0.00;0.00;;;;;;;;;;5106703;27;20205;-74
2021/11/01 05:49:36;;;;;;;0.27;0.10;;;;;;;;;;5110021;27;20287;-76
2021/11/01 05:52:07;;;;;;;0.07;0.07;;;;;;;;;;5107612;27;20205;-76
2021/11/01 05:54:34;;;;;;;0.00;0.00;;;;;;;;;;5106293;28;20229;-75
2021/11/01 05:57:08;;;;;;;0.00;0.00;;;;;;;;;;5094703;28;20210;-75
2021/11/01 06:02:37;;;;;;;1.73;1.63;;;;;;;;;;5084400;27;20197;-76
2021/11/01 06:07:58;;;;;;;0.20;0.20;;;;;;;;;;5092477;28;20885;-76
2021/11/01 06:10:39;;;;;;;0.00;0.00;;;;;;;;;;5094536;28;20629;-76
2021/11/01 06:15:51;;;;;;;0.10;0.10;;;;;;;;;;5093271;28;20216;-75
2021/11/01 06:18:19;;;;;;;0.33;0.33;;;;;;;;;;5092235;28;20562;-75
2021/11/01 06:20:47;;;;;;;1.50;0.77;;;;;;;;;;5090289;28;20202;-74
2021/11/01 06:23:15;;;;;;;0.20;0.17;;;;;;;;;;5095538;28;20838;-75
2021/11/01 06:25:42;;;;;;;9.03;2.13;;;;;;;;;;5094746;28;20205;-74
2021/11/01 06:28:13;;;;;;;1.90;0.47;;;;;;;;;;5093440;28;20534;-75
2021/11/01 06:30:45;;;;;;;0.00;0.00;;;;;;;;;;5093226;28;20202;-75
2021/11/01 06:41:43;;;;;;;0.97;0.20;;;;;;;;;;5093564;27;20300;-74
2021/11/01 06:44:26;;;;;;;1.10;0.30;;;;;;;;;;5096349;28;20232;-76
2021/11/01 06:49:56;;;;;;;0.23;0.23;;;;;;;;;;5094592;28;20221;-76
2021/11/01 06:55:24;;;;;;;0.00;0.00;;;;;;;;;;5090822;28;20631;-75
2021/11/01 07:14:29;;;;;;;5.43;0.30;;;;;;;;;;5092941;28;20247;-74
2021/11/01 07:16:59;;;;;;;0.07;0.07;;;;;;;;;;5106463;27;20639;-75
2021/11/01 07:19:36;;;;;;;0.57;0.57;;;;;;;;;;5108654;28;20239;-76
2021/11/01 07:22:26;;;;;;;0.20;0.20;;;;;;;;;;5101458;28;20232;-76
2021/11/01 08:17:50;;;;;;;0.33;0.23;;;;;;;;;;5093168;28;20255;-76
2021/11/01 08:20:54;;;;;;;0.07;0.07;;;;;;;;;;5092043;28;20205;-74
2021/11/01 08:29:14;;;;;;;0.00;0.00;;;;;;;;;;5092314;28;20206;-76
2021/11/01 08:40:15;;;;;;;0.30;0.30;;;;;;;;;;5090446;28;20193;-78
2021/11/01 08:42:57;;;;;;;0.10;0.10;;;;;;;;;;5092571;28;20206;-75
2021/11/01 08:48:51;;;;;;;0.67;0.67;;;;;;;;;;5091237;28;20203;-78
2021/11/01 09:08:04;;;;;;;0.20;0.10;;;;;;;;;;5058925;28;20241;-73
2021/11/01 09:13:30;;;;;;;0.90;0.87;;;;;;;;;;5102243;28;20201;-74
2021/11/01 09:18:48;;;;;;;0.20;0.20;;;;;;;;;;5097607;28;20255;-76
2021/11/01 09:26:48;;;;;;;0.00;0.00;;;;;;;;;;5082654;28;20206;-75
2021/11/01 09:29:27;;;;;;;1.03;0.40;;;;;;;;;;5095749;28;20823;-72
2021/11/01 09:38:08;;;;;;;0.23;0.23;;;;;;;;;;5092231;27;20665;-74
2021/11/01 09:40:58;;;;;;;2.20;0.40;;;;;;;;;;5098111;27;20202;-71
2021/11/01 09:43:26;;;;;;;0.00;0.00;;;;;;;;;;5097059;27;20295;-74
2021/11/01 09:45:55;;;;;;;0.57;0.10;;;;;;;;;;5096761;27;21213;-73
2021/11/01 09:48:22;;;;;;;0.00;0.00;;;;;;;;;;5100264;27;20549;-72
2021/11/01 09:50:51;;;;;;;0.30;0.30;;;;;;;;;;5098329;27;20202;-75
2021/11/01 09:53:22;;;;;;;3.30;0.67;;;;;;;;;;5096901;27;20603;-73
2021/11/01 09:55:55;;;;;;;0.20;0.20;;;;;;;;;;5099416;27;20937;-73
2021/11/01 10:01:10;;;;;;;0.20;0.20;;;;;;;;;;5097648;27;20217;-71
2021/11/01 10:03:40;;;;;;;0.03;0.03;;;;;;;;;;5095292;27;20205;-75
2021/11/01 10:06:08;;;;;;;0.00;0.00;;;;;;;;;;5098404;27;20215;-75
2021/11/01 10:08:37;;;;;;;0.00;0.00;;;;;;;;;;5098606;27;20205;-73
2021/11/01 10:11:14;;;;;;;0.40;0.40;;;;;;;;;;5094082;27;20200;-74
2021/11/01 10:13:42;;;;;;;0.00;0.00;;;;;;;;;;5097451;27;21051;-75
2021/11/01 10:18:54;;;;;;;0.00;0.00;;;;;;;;;;5096478;27;20250;-75
2021/11/01 10:21:22;;;;;;;0.00;0.00;;;;;;;;;;5098407;27;20230;-76
2021/11/01 10:26:32;;;;;;;0.00;0.00;;;;;;;;;;5971695;23;21261;-75
2021/11/01 10:29:08;;;;;;;0.00;0.00;;;;;;;;;;4950103;28;20242;-75
2021/11/01 10:31:44;;;;;;;0.00;0.00;;;;;;;;;;4951675;28;20206;-75
2021/11/01 10:34:14;;;;;;;0.27;0.10;;;;;;;;;;4953385;28;20206;-75
2021/11/01 10:36:42;;;;;;;0.00;0.00;;;;;;;;;;4953914;28;20286;-76
2021/11/01 10:39:12;;;;;;;2.13;1.97;;;;;;;;;;4951928;28;20211;-72
2021/11/01 10:41:48;;;;;;;0.30;0.30;;;;;;;;;;4950893;28;20210;-76
2021/11/01 10:44:41;;;;;;;0.00;0.00;;;;;;;;;;4945821;28;20198;-71
2021/11/01 10:47:42;;;;;;;1.73;1.37;;;;;;;;;;4945847;28;20218;-74
2021/11/01 11:12:31;;;;;;;1.73;0.43;;;;;;;;;;4943358;28;20217;-75
2021/11/01 11:15:07;;;;;;;0.77;0.40;;;;;;;;;;4941291;28;20671;-73
2021/11/01 11:17:43;;;;;;;0.00;0.00;;;;;;;;;;4944018;28;20213;-77
2021/11/01 11:29:12;;;;;;;0.43;0.43;;;;;;;;;;4947338;28;20230;-75
2021/11/01 11:40:19;;;;;;;0.00;0.00;;;;;;;;;;4946234;28;20210;-78
2021/11/01 11:48:16;;;;;;;0.37;0.37;;;;;;;;;;4945233;28;20223;-74
2021/11/01 11:50:45;;;;;;;0.30;0.10;;;;;;;;;;4947896;28;20209;-73
2021/11/01 11:53:14;;;;;;;0.13;0.13;;;;;;;;;;4946845;28;20206;-74
2021/11/01 11:55:42;;;;;;;0.67;0.67;;;;;;;;;;4945386;28;20317;-74
2021/11/01 11:58:12;;;;;;;1.07;1.07;;;;;;;;;;4946837;28;20299;-73
2021/11/01 12:00:40;;;;;;;0.00;0.00;;;;;;;;;;4945487;28;20204;-74
2021/11/01 12:03:13;;;;;;;0.00;0.00;;;;;;;;;;4945938;28;20206;-73
2021/11/01 12:05:44;;;;;;;0.20;0.20;;;;;;;;;;4945112;28;20210;-73
2021/11/01 12:08:18;;;;;;;0.20;0.20;;;;;;;;;;4949828;28;20684;-72
2021/11/01 12:19:12;;;;;;;0.43;0.43;;;;;;;;;;4938621;28;20280;-70
2021/11/01 12:21:41;;;;;;;2.43;2.33;;;;;;;;;;4942313;28;20209;-70
2021/11/01 12:24:10;;;;;;;0.63;0.53;;;;;;;;;;4948629;28;20200;-71
2021/11/01 12:26:40;;;;;;;0.00;0.00;;;;;;;;;;4946780;28;20233;-70
2021/11/01 12:29:09;;;;;;;0.10;0.10;;;;;;;;;;4944231;28;20579;-70
2021/11/01 12:31:37;;;;;;;0.10;0.10;;;;;;;;;;4947851;28;20827;-70
2021/11/01 12:34:07;;;;;;;0.00;0.00;;;;;;;;;;4944994;28;20202;-71
2021/11/01 12:36:43;;;;;;;1.33;0.50;;;;;;;;;;4945430;28;20278;-70
2021/11/01 12:39:20;;;;;;;0.00;0.00;;;;;;;;;;4944330;28;20206;-71
2021/11/01 12:42:07;;;;;;;0.00;0.00;;;;;;;;;;4945297;28;20674;-71
2021/11/01 12:47:44;;;;;;;1.00;0.93;;;;;;;;;;4941938;28;20242;-71
2021/11/01 12:58:43;;;;;;;3.70;0.60;;;;;;;;;;4946410;28;20254;-72
2021/11/01 13:01:13;;;;;;;0.13;0.13;;;;;;;;;;4953161;28;20258;-72
2021/11/01 13:03:41;;;;;;;0.50;0.27;;;;;;;;;;4950059;28;20209;-71
2021/11/01 13:06:12;;;;;;;0.30;0.30;;;;;;;;;;4954444;28;20236;-72
2021/11/01 13:08:49;;;;;;;0.00;0.00;;;;;;;;;;4949625;28;20203;-71
2021/11/01 13:11:29;;;;;;;0.00;0.00;;;;;;;;;;4953044;28;20750;-71
2021/11/01 13:14:28;;;;;;;0.00;0.00;;;;;;;;;;4946489;28;20202;-70
2021/11/01 13:19:47;;;;;;;0.10;0.10;;;;;;;;;;4948280;28;20252;-70
2021/11/01 13:22:19;;;;;;;0.00;0.00;;;;;;;;;;4951780;28;20223;-70
2021/11/01 13:24:56;;;;;;;0.00;0.00;;;;;;;;;;4954676;28;20196;-72
2021/11/01 13:27:34;;;;;;;0.20;0.10;;;;;;;;;;4953619;29;20235;-71
2021/11/01 13:35:46;;;;;;;0.00;0.00;;;;;;;;;;4953151;28;20723;-70
2021/11/01 13:38:13;;;;;;;0.00;0.00;;;;;;;;;;4951873;28;20214;-71
2021/11/01 13:40:44;;;;;;;0.10;0.10;;;;;;;;;;4953363;28;20282;-70
2021/11/01 13:43:12;;;;;;;0.00;0.00;;;;;;;;;;4952451;28;20203;-70
2021/11/01 13:45:41;;;;;;;0.13;0.13;;;;;;;;;;4952693;28;20217;-71
2021/11/01 13:48:08;;;;;;;2.37;0.20;;;;;;;;;;4951090;28;20214;-71
2021/11/01 13:50:37;;;;;;;0.40;0.37;;;;;;;;;;4952795;28;20211;-71
2021/11/01 13:53:08;;;;;;;0.00;0.00;;;;;;;;;;4951785;28;20203;-70
2021/11/01 13:55:43;;;;;;;0.00;0.00;;;;;;;;;;4951843;28;20617;-71
2021/11/01 13:58:32;;;;;;;0.00;0.00;;;;;;;;;;4952093;29;20223;-70
2021/11/01 14:01:34;;;;;;;0.00;0.00;;;;;;;;;;4952707;28;20215;-70
2021/11/01 14:12:30;;;;;;;0.00;0.00;;;;;;;;;;4953024;28;20258;-69
2021/11/01 14:15:04;;;;;;;0.00;0.00;;;;;;;;;;4947540;28;20211;-70
2021/11/01 14:17:55;;;;;;;0.00;0.00;;;;;;;;;;4950295;28;20245;-67
2021/11/01 14:20:41;;;;;;;1.20;0.67;;;;;;;;;;4947351;28;20242;-71
2021/11/01 14:28:44;;;;;;;0.20;0.10;;;;;;;;;;4922033;28;20234;-74
2021/11/01 15:10:21;;;;;;;0.00;0.00;;;;;;;;;;4945215;28;20337;-73
2021/11/01 15:18:31;;;;;;;0.00;0.00;;;;;;;;;;4925868;28;20238;-72
2021/11/01 15:21:11;;;;;;;0.00;0.00;;;;;;;;;;4944267;28;20938;-74
2021/11/01 15:23:57;;;;;;;0.00;0.00;;;;;;;;;;4947196;28;20213;-74
2021/11/01 15:32:41;;;;;;;0.00;0.00;;;;;;;;;;4946973;28;20298;-74
2021/11/01 15:35:24;;;;;;;0.00;0.00;;;;;;;;;;4948561;28;20668;-75
2021/11/01 16:19:31;;;;;;;0.03;0.03;;;;;;;;;;4942917;28;20204;-72
2021/11/01 16:21:58;;;;;;;0.00;0.00;;;;;;;;;;4944518;28;20203;-75
2021/11/01 16:24:27;;;;;;;0.20;0.10;;;;;;;;;;4946524;28;20243;-73
2021/11/01 16:26:56;;;;;;;0.00;0.00;;;;;;;;;;4946210;28;20206;-74
2021/11/01 16:29:30;;;;;;;0.00;0.00;;;;;;;;;;4944697;28;20580;-74
2021/11/01 16:32:02;;;;;;;0.00;0.00;;;;;;;;;;4944332;28;20207;-70
2021/11/01 16:34:30;;;;;;;0.00;0.00;;;;;;;;;;4943817;28;20212;-74
2021/11/01 16:37:12;;;;;;;0.00;0.00;;;;;;;;;;4944656;28;20230;-74
2021/11/01 16:39:47;;;;;;;0.10;0.10;;;;;;;;;;4946652;28;20207;-74
2021/11/01 16:42:16;;;;;;;0.30;0.30;;;;;;;;;;4947434;28;20209;-76
2021/11/01 16:44:44;;;;;;;0.20;0.20;;;;;;;;;;4946725;28;20209;-73
2021/11/01 16:47:12;;;;;;;0.00;0.00;;;;;;;;;;4945915;28;20207;-72
2021/11/01 16:49:40;;;;;;;0.00;0.00;;;;;;;;;;4947799;28;20242;-79
2021/11/01 16:52:15;;;;;;;0.00;0.00;;;;;;;;;;4945869;28;20664;-77
2021/11/01 16:54:44;;;;;;;0.00;0.00;;;;;;;;;;4945567;28;20205;-79
2021/11/01 16:57:16;;;;;;;0.00;0.00;;;;;;;;;;4945868;28;20233;-73
2021/11/01 16:59:52;;;;;;;0.10;0.10;;;;;;;;;;4946162;28;20866;-71
2021/11/01 17:02:41;;;;;;;0.00;0.00;;;;;;;;;;4943656;28;21042;-75
2021/11/01 17:05:18;;;;;;;0.00;0.00;;;;;;;;;;4945024;28;20710;-73
2021/11/01 17:10:57;;;;;;;0.00;0.00;;;;;;;;;;4903645;28;20687;-74
2021/11/01 17:21:47;;;;;;;0.00;0.00;;;;;;;;;;4933686;28;20222;-74
2021/11/01 17:24:19;;;;;;;0.00;0.00;;;;;;;;;;4936266;28;20217;-74
2021/11/01 17:26:59;;;;;;;0.00;0.00;;;;;;;;;;4936694;28;20203;-75
2021/11/01 17:29:45;;;;;;;0.00;0.00;;;;;;;;;;4920988;29;20215;-74
2021/11/01 17:35:13;;;;;;;0.10;0.10;;;;;;;;;;4924141;29;20219;-75
2021/11/01 17:37:52;;;;;;;0.00;0.00;;;;;;;;;;4921167;29;20235;-75
2021/11/01 18:41:40;;;;;;;0.10;0.10;;;;;;;;;;4868230;29;20297;-74
2021/11/01 18:44:31;;;;;;;1.63;1.43;;;;;;;;;;4868016;29;20212;-74
2021/11/01 18:52:34;;;;;;;0.00;0.00;;;;;;;;;;4867091;29;20737;-73
2021/11/01 18:55:08;;;;;;;0.00;0.00;;;;;;;;;;4866178;29;20217;-73
2021/11/01 18:57:36;;;;;;;0.13;0.13;;;;;;;;;;4862188;29;21443;-73
2021/11/01 19:00:07;;;;;;;0.10;0.10;;;;;;;;;;4862364;29;20228;-74
2021/11/01 19:02:42;;;;;;;0.20;0.20;;;;;;;;;;4867292;29;20217;-74
2021/11/01 19:05:16;;;;;;;0.00;0.00;;;;;;;;;;4862696;29;20995;-74
2021/11/01 19:07:48;;;;;;;0.17;0.17;;;;;;;;;;4864606;29;20218;-74
2021/11/01 20:06:42;;;;;;;3.73;1.50;;;;;;;;;;5072550;28;20208;-72
2021/11/01 20:09:47;;;;;;;0.00;0.00;;;;;;;;;;5092867;28;20205;-72
2021/11/01 20:15:29;;;;;;;0.00;0.00;;;;;;;;;;5055948;28;20265;-72
2021/11/01 21:25:02;;;;;;;0.27;0.27;;;;;;;;;;5080606;28;20252;-71
2021/11/01 21:27:30;;;;;;;0.00;0.00;;;;;;;;;;5081657;28;20198;-71
2021/11/01 21:29:59;;;;;;;0.00;0.00;;;;;;;;;;5082663;28;20207;-71
2021/11/01 21:32:27;;;;;;;1.27;0.43;;;;;;;;;;5083430;28;20872;-70
2021/11/01 21:34:59;;;;;;;0.00;0.00;;;;;;;;;;5079714;28;20202;-71
2021/11/01 21:37:27;;;;;;;0.00;0.00;;;;;;;;;;5078749;28;20690;-71
2021/11/01 21:39:55;;;;;;;0.00;0.00;;;;;;;;;;5082579;28;20282;-71
2021/11/01 21:42:22;;;;;;;0.20;0.20;;;;;;;;;;5086691;28;20585;-71
2021/11/01 21:44:51;;;;;;;0.47;0.20;;;;;;;;;;5081676;28;20238;-71
2021/11/01 21:47:20;;;;;;;0.10;0.10;;;;;;;;;;5084226;28;20280;-71
2021/11/01 21:49:48;;;;;;;0.63;0.63;;;;;;;;;;5083721;28;20209;-71
2021/11/01 21:52:17;;;;;;;0.00;0.00;;;;;;;;;;5078648;28;20785;-71
2021/11/01 21:54:47;;;;;;;0.00;0.00;;;;;;;;;;5083413;28;20202;-70
2021/11/01 21:57:18;;;;;;;0.23;0.07;;;;;;;;;;5079101;28;20210;-70
2021/11/01 22:22:29;;;;;;;0.00;0.00;;;;;;;;;;5080535;28;20207;-70
2021/11/01 22:25:03;;;;;;;0.97;0.97;;;;;;;;;;5079330;28;20595;-70
2021/11/01 22:33:29;;;;;;;0.73;0.57;;;;;;;;;;5074779;28;20342;-70
2021/11/01 22:39:04;;;;;;;0.00;0.00;;;;;;;;;;5077823;28;20213;-70
2021/11/01 22:41:40;;;;;;;1.07;1.07;;;;;;;;;;5080320;28;20215;-70
2021/11/01 22:57:59;;;;;;;0.10;0.10;;;;;;;;;;5082001;28;20630;-70
2021/11/01 23:00:33;;;;;;;0.00;0.00;;;;;;;;;;5080101;28;20198;-70
2021/11/01 23:03:05;;;;;;;2.00;0.63;;;;;;;;;;5080920;28;20317;-70
2021/11/01 23:05:50;;;;;;;0.00;0.00;;;;;;;;;;5081090;28;20237;-71
2021/11/01 23:33:07;;;;;;;0.00;0.00;;;;;;;;;;5074234;28;20209;-69
2021/11/01 23:35:34;;;;;;;1.33;0.50;;;;;;;;;;5076255;28;20206;-70
2021/11/01 23:38:02;;;;;;;0.00;0.00;;;;;;;;;;5073339;28;20218;-69
2021/11/01 23:40:31;;;;;;;0.27;0.27;;;;;;;;;;5071309;28;20214;-70
2021/11/01 23:42:58;;;;;;;0.00;0.00;;;;;;;;;;5073890;28;20749;-70
2021/11/01 23:45:26;;;;;;;0.17;0.10;;;;;;;;;;5072285;28;20226;-70
2021/11/01 23:47:53;;;;;;;0.00;0.00;;;;;;;;;;5072919;28;20202;-69
2021/11/01 23:50:20;;;;;;;0.77;0.77;;;;;;;;;;5074769;28;20194;-69
2021/11/01 23:53:02;;;;;;;0.00;0.00;;;;;;;;;;5072198;28;20274;-70
2021/11/01 23:55:31;;;;;;;0.00;0.00;;;;;;;;;;5072825;28;20208;-70
2021/11/01 23:57:59;;;;;;;0.00;0.00;;;;;;;;;;5071553;28;20214;-70
